createdAt,value
2022-10-07T00:01:12.709Z,44.80
2022-10-07T00:04:15.514Z,44.90
2022-10-07T00:07:16.933Z,44.60
2022-10-07T00:10:18.278Z,44.60
2022-10-07T00:13:19.706Z,44.70
2022-10-07T00:16:23.978Z,44.70
2022-10-07T00:19:27.698Z,44.70
2022-10-07T00:22:29.360Z,44.50
2022-10-07T00:25:30.981Z,44.70
2022-10-07T00:28:33.253Z,44.50
2022-10-07T00:31:36.173Z,44.50
2022-10-07T00:34:38.275Z,44.30
2022-10-07T00:37:42.454Z,44.80
2022-10-07T00:40:44.207Z,44.60
2022-10-07T00:43:46.391Z,44.40
2022-10-07T00:46:47.911Z,44.30
2022-10-07T00:49:53.793Z,44.30
2022-10-07T00:52:58.955Z,44.30
2022-10-07T00:56:07.237Z,44.30
2022-10-07T00:59:09.367Z,44.00
2022-10-07T01:02:10.843Z,44.00
2022-10-07T01:05:13.739Z,44.00
2022-10-07T01:08:17.731Z,43.80
2022-10-07T01:11:37.917Z,43.80
2022-10-07T01:14:49.774Z,43.90
2022-10-07T01:17:58.967Z,43.90
2022-10-07T01:21:06.707Z,43.70
2022-10-07T01:24:24.168Z,43.80
2022-10-07T01:27:30.293Z,43.70
2022-10-07T01:30:36.570Z,43.70
2022-10-07T01:33:41.002Z,43.60
2022-10-07T01:36:51.204Z,43.50
2022-10-07T01:39:56.487Z,43.40
2022-10-07T01:43:04.191Z,43.60
2022-10-07T01:46:08.875Z,43.30
2022-10-07T01:49:11.093Z,43.30
2022-10-07T01:52:35.230Z,43.60
2022-10-07T01:55:49.751Z,43.20
2022-10-07T01:59:11.757Z,43.10
2022-10-07T02:02:27.070Z,43.10
2022-10-07T02:05:42.146Z,43.00
2022-10-07T02:08:51.581Z,43.40
2022-10-07T02:11:59.888Z,42.90
2022-10-07T02:15:11.769Z,42.70
2022-10-07T02:18:16.824Z,42.70
2022-10-07T02:21:21.787Z,42.80
2022-10-07T02:24:27.323Z,42.40
2022-10-07T02:27:34.334Z,42.60
2022-10-07T02:30:39.468Z,42.40
2022-10-07T02:33:42.240Z,42.50
2022-10-07T02:36:49.569Z,42.60
2022-10-07T02:39:52.994Z,42.40
2022-10-07T02:42:58.441Z,42.50
2022-10-07T02:46:07.451Z,42.40
2022-10-07T02:49:13.745Z,42.40
2022-10-07T02:52:18.442Z,42.50
2022-10-07T02:55:25.136Z,42.40
2022-10-07T02:58:26.997Z,42.30
2022-10-07T03:01:33.869Z,42.50
2022-10-07T03:04:35.350Z,42.20
2022-10-07T03:07:36.652Z,42.40
2022-10-07T03:10:40.042Z,42.40
2022-10-07T03:13:43.854Z,42.50
2022-10-07T03:16:46.075Z,42.60
2022-10-07T03:19:48.677Z,42.10
2022-10-07T03:22:50.169Z,42.30
2022-10-07T03:25:55.330Z,42.40
2022-10-07T03:28:58.851Z,42.30
2022-10-07T03:32:04.691Z,42.30
2022-10-07T03:35:08.362Z,42.00
2022-10-07T03:38:10.884Z,42.10
2022-10-07T03:41:18.737Z,42.00
2022-10-07T03:44:23.901Z,42.10
2022-10-07T03:47:27.018Z,42.10
2022-10-07T03:50:28.759Z,41.60
2022-10-07T03:53:39.052Z,42.10
2022-10-07T03:56:40.871Z,42.00
2022-10-07T03:59:42.354Z,41.90
2022-10-07T04:02:44.725Z,42.00
2022-10-07T04:05:58.506Z,42.20
2022-10-07T04:09:02.633Z,41.80
2022-10-07T04:12:07.468Z,41.90
2022-10-07T04:15:13.086Z,41.80
2022-10-07T04:18:17.363Z,41.60
2022-10-07T04:21:18.811Z,41.70
2022-10-07T04:24:21.333Z,42.00
2022-10-07T04:27:46.901Z,41.60
2022-10-07T04:30:48.295Z,41.60
2022-10-07T04:33:50.787Z,41.40
2022-10-07T04:37:00.278Z,41.60
2022-10-07T04:40:02.589Z,41.50
2022-10-07T04:43:21.770Z,41.50
2022-10-07T04:46:27.905Z,41.40
2022-10-07T04:49:35.883Z,56.50
2022-10-07T04:52:40.504Z,41.70
2022-10-07T04:55:44.146Z,41.60
2022-10-07T04:58:46.227Z,41.60
2022-10-07T05:01:48.350Z,41.70
2022-10-07T05:04:54.219Z,41.60
2022-10-07T05:07:55.781Z,41.60
2022-10-07T05:11:01.605Z,41.90
2022-10-07T05:14:10.005Z,41.60
2022-10-07T05:17:12.974Z,41.40
2022-10-07T05:20:15.719Z,41.50
2022-10-07T05:23:18.891Z,41.80
2022-10-07T05:26:21.110Z,41.90
2022-10-07T05:29:27.821Z,41.90
2022-10-07T05:32:30.951Z,42.10
2022-10-07T05:35:33.721Z,41.90
2022-10-07T05:38:36.457Z,41.90
2022-10-07T05:41:45.518Z,41.80
2022-10-07T05:44:48.636Z,41.90
2022-10-07T05:47:50.753Z,42.00
2022-10-07T05:50:56.388Z,41.80
2022-10-07T05:53:58.183Z,41.60
2022-10-07T05:57:05.931Z,41.80
2022-10-07T06:00:10.472Z,42.00
2022-10-07T06:03:25.119Z,41.70
2022-10-07T06:06:29.327Z,41.60
2022-10-07T06:09:47.069Z,41.90
2022-10-07T06:13:06.378Z,42.00
2022-10-07T06:16:09.577Z,41.80
2022-10-07T06:19:21.592Z,41.90
2022-10-07T06:22:27.149Z,42.10
2022-10-07T06:25:28.862Z,41.90
2022-10-07T06:28:32.572Z,42.00
2022-10-07T06:31:34.715Z,42.00
2022-10-07T06:34:38.456Z,41.80
2022-10-07T06:37:40.631Z,42.00
2022-10-07T06:40:43.703Z,42.20
2022-10-07T06:43:45.543Z,42.00
2022-10-07T06:46:49.556Z,42.10
2022-10-07T06:49:52.773Z,42.00
2022-10-07T06:52:55.150Z,42.00
2022-10-07T06:56:01.586Z,41.80
2022-10-07T06:59:05.171Z,41.90
2022-10-07T07:02:15.885Z,42.00
2022-10-07T07:05:17.617Z,42.30
2022-10-07T07:08:26.929Z,42.20
2022-10-07T07:11:36.941Z,41.90
2022-10-07T07:14:50.823Z,41.80
2022-10-07T07:17:55.715Z,42.10
2022-10-07T07:21:01.864Z,42.40
2022-10-07T07:24:04.669Z,41.90
2022-10-07T07:27:08.008Z,42.60
2022-10-07T07:30:12.595Z,42.30
2022-10-07T07:33:14.239Z,42.00
2022-10-07T07:36:16.014Z,42.30
2022-10-07T07:39:20.732Z,42.20
2022-10-07T07:42:36.584Z,41.90
2022-10-07T07:45:38.315Z,42.00
2022-10-07T07:48:40.018Z,42.20
2022-10-07T07:51:42.277Z,42.20
2022-10-07T07:54:47.871Z,41.90
2022-10-07T07:57:49.859Z,42.10
2022-10-07T08:01:00.057Z,42.20
2022-10-07T08:04:03.643Z,42.40
2022-10-07T08:07:06.810Z,42.40
2022-10-07T08:10:10.025Z,42.40
2022-10-07T08:13:13.387Z,42.40
2022-10-07T08:16:19.666Z,42.30
2022-10-07T08:19:22.061Z,42.50
2022-10-07T08:22:24.001Z,42.80
2022-10-07T08:25:27.901Z,42.60
2022-10-07T08:28:31.145Z,42.60
2022-10-07T08:31:34.927Z,42.70
2022-10-07T08:34:36.512Z,42.80
2022-10-07T08:37:38.206Z,42.80
2022-10-07T08:40:47.588Z,43.00
2022-10-07T08:43:50.559Z,43.20
2022-10-07T08:47:00.381Z,42.90
2022-10-07T08:50:07.360Z,42.80
2022-10-07T08:53:16.950Z,43.10
2022-10-07T08:56:22.754Z,43.20
2022-10-07T08:59:29.241Z,43.40
2022-10-07T09:02:39.829Z,43.50
2022-10-07T09:05:45.129Z,43.50
2022-10-07T09:08:53.196Z,43.40
2022-10-07T09:11:57.009Z,43.60
2022-10-07T09:15:04.812Z,44.30
2022-10-07T09:18:15.517Z,44.00
2022-10-07T09:21:22.695Z,44.00
2022-10-07T09:24:27.395Z,43.80
2022-10-07T09:27:29.616Z,44.10
2022-10-07T09:30:32.529Z,44.10
2022-10-07T09:33:40.679Z,44.20
2022-10-07T09:37:08.466Z,44.40
2022-10-07T09:40:20.980Z,44.30
2022-10-07T09:43:24.033Z,44.30
2022-10-07T09:46:46.023Z,44.20
2022-10-07T09:49:50.935Z,44.30
2022-10-07T09:52:58.628Z,44.40
2022-10-07T09:56:00.097Z,44.50
2022-10-07T09:59:23.330Z,44.70
2022-10-07T10:02:26.600Z,44.60
2022-10-07T10:05:30.935Z,44.50
2022-10-07T10:08:34.943Z,44.60
2022-10-07T10:11:36.586Z,44.50
2022-10-07T10:14:45.421Z,44.70
2022-10-07T10:17:47.132Z,44.60
2022-10-07T10:20:48.618Z,44.70
2022-10-07T10:23:52.508Z,44.70
2022-10-07T10:27:02.933Z,44.70
2022-10-07T10:30:20.637Z,44.50
2022-10-07T10:33:30.237Z,44.40
2022-10-07T10:36:38.584Z,44.50
2022-10-07T10:39:56.806Z,44.40
2022-10-07T10:43:13.219Z,44.40
2022-10-07T10:46:26.816Z,44.30
2022-10-07T10:49:34.675Z,57.70
2022-10-07T10:52:50.661Z,44.20
2022-10-07T10:56:06.662Z,44.30
2022-10-07T10:59:24.323Z,44.10
2022-10-07T11:02:39.819Z,44.00
2022-10-07T11:05:43.336Z,44.00
2022-10-07T11:08:46.930Z,44.00
2022-10-07T11:11:49.250Z,43.90
2022-10-07T11:14:57.877Z,43.90
2022-10-07T11:18:04.100Z,44.00
2022-10-07T11:21:11.796Z,43.70
2022-10-07T11:24:17.304Z,43.80
2022-10-07T11:27:27.205Z,43.70
2022-10-07T11:30:39.541Z,43.80
2022-10-07T11:33:49.620Z,43.80
2022-10-07T11:37:02.166Z,43.70
2022-10-07T11:40:04.690Z,43.60
2022-10-07T11:43:16.742Z,43.50
2022-10-07T11:46:22.311Z,43.50
2022-10-07T11:49:29.090Z,43.60
2022-10-07T11:52:38.051Z,43.70
2022-10-07T11:55:44.567Z,43.90
2022-10-07T11:58:51.118Z,43.70
2022-10-07T12:01:54.372Z,43.50
2022-10-07T12:04:57.542Z,43.60
2022-10-07T12:08:00.573Z,43.40
2022-10-07T12:11:29.076Z,43.70
2022-10-07T12:14:41.768Z,43.50
2022-10-07T12:17:53.877Z,43.60
2022-10-07T12:21:06.284Z,43.50
2022-10-07T12:24:13.768Z,43.50
2022-10-07T12:27:17.355Z,43.40
2022-10-07T12:30:37.071Z,43.60
2022-10-07T12:33:53.804Z,43.60
2022-10-07T12:37:29.307Z,42.90
2022-10-07T12:40:34.789Z,43.20
2022-10-07T12:43:46.980Z,43.30
2022-10-07T12:46:51.469Z,43.30
2022-10-07T12:49:57.762Z,43.80
2022-10-07T12:53:02.490Z,43.40
2022-10-07T12:56:05.578Z,43.60
2022-10-07T12:59:48.716Z,43.40
2022-10-07T13:03:24.404Z,43.30
2022-10-07T13:06:54.365Z,43.30
2022-10-07T13:10:18.287Z,43.20
2022-10-07T13:13:24.129Z,43.40
2022-10-07T13:16:34.281Z,43.00
2022-10-07T13:19:42.943Z,43.00
2022-10-07T13:22:47.040Z,43.10
2022-10-07T13:25:52.981Z,43.00
2022-10-07T13:28:56.134Z,43.10
2022-10-07T13:32:07.312Z,43.20
2022-10-07T13:35:29.118Z,43.30
2022-10-07T13:38:30.669Z,43.30
2022-10-07T13:41:35.980Z,43.40
2022-10-07T13:44:43.002Z,43.20
2022-10-07T13:47:46.120Z,43.20
2022-10-07T13:50:49.786Z,43.00
2022-10-07T13:53:54.416Z,43.00
2022-10-07T13:56:56.683Z,42.60
2022-10-07T13:59:59.418Z,42.70
2022-10-07T14:03:13.618Z,42.40
2022-10-07T14:06:38.817Z,42.30
2022-10-07T14:09:47.012Z,42.30
2022-10-07T14:12:56.322Z,42.20
2022-10-07T14:15:59.414Z,41.90
2022-10-07T14:19:00.968Z,41.90
2022-10-07T14:22:12.507Z,42.20
2022-10-07T14:25:18.708Z,41.80
2022-10-07T14:28:28.274Z,41.80
2022-10-07T14:31:44.620Z,41.60
2022-10-07T14:34:58.742Z,41.50
2022-10-07T14:38:18.653Z,41.20
2022-10-07T14:41:22.141Z,40.80
2022-10-07T14:44:25.436Z,40.70
2022-10-07T14:47:27.872Z,40.80
2022-10-07T14:50:29.381Z,40.40
2022-10-07T14:53:30.934Z,40.00
2022-10-07T14:56:34.980Z,39.70
2022-10-07T14:59:37.342Z,39.70
2022-10-07T15:02:38.842Z,39.30
2022-10-07T15:05:40.284Z,38.80
2022-10-07T15:08:42.476Z,38.60
2022-10-07T15:11:43.937Z,39.50
2022-10-07T15:14:48.023Z,38.60
2022-10-07T15:17:49.629Z,38.80
2022-10-07T15:20:56.183Z,38.90
2022-10-07T15:23:57.721Z,38.60
2022-10-07T15:27:00.469Z,38.60
2022-10-07T15:30:02.903Z,38.80
2022-10-07T15:33:04.554Z,38.80
2022-10-07T15:36:06.770Z,38.80
2022-10-07T15:39:10.665Z,38.80
2022-10-07T15:42:14.191Z,39.20
2022-10-07T15:45:16.446Z,39.40
2022-10-07T15:48:18.598Z,39.00
2022-10-07T15:51:20.272Z,39.20
2022-10-07T15:54:21.686Z,39.30
2022-10-07T15:57:26.415Z,39.20
2022-10-07T16:00:28.467Z,38.90
2022-10-07T16:03:34.898Z,39.00
2022-10-07T16:06:36.474Z,39.60
2022-10-07T16:09:38.339Z,38.80
2022-10-07T16:12:39.771Z,38.60
2022-10-07T16:15:42.040Z,38.60
2022-10-07T16:18:45.805Z,38.50
2022-10-07T16:21:47.509Z,38.30
2022-10-07T16:24:49.225Z,38.30
2022-10-07T16:28:05.486Z,38.30
2022-10-07T16:31:07.535Z,38.30
2022-10-07T16:34:11.341Z,38.20
2022-10-07T16:37:14.361Z,38.20
2022-10-07T16:40:15.922Z,38.20
2022-10-07T16:43:17.314Z,38.30
2022-10-07T16:46:20.512Z,38.10
2022-10-07T16:49:24.437Z,38.20
2022-10-07T16:52:26.022Z,38.20
2022-10-07T16:55:27.409Z,38.30
2022-10-07T16:58:28.879Z,38.30
2022-10-07T17:01:32.019Z,38.30
2022-10-07T17:04:33.623Z,38.30
2022-10-07T17:07:35.195Z,38.50
2022-10-07T17:10:39.477Z,38.50
2022-10-07T17:13:40.877Z,38.60
2022-10-07T17:16:43.687Z,38.70
2022-10-07T17:19:45.590Z,38.70
2022-10-07T17:22:47.143Z,38.80
2022-10-07T17:25:48.541Z,38.90
2022-10-07T17:28:49.975Z,38.90
2022-10-07T17:31:51.983Z,39.20
2022-10-07T17:34:53.629Z,39.10
2022-10-07T17:37:55.887Z,39.20
2022-10-07T17:40:57.437Z,39.30
2022-10-07T17:44:00.868Z,39.30
2022-10-07T17:47:08.269Z,39.30
2022-10-07T17:50:11.381Z,39.70
2022-10-07T17:53:12.782Z,39.60
2022-10-07T17:56:15.034Z,39.80
2022-10-07T17:59:16.702Z,39.70
2022-10-07T18:02:19.136Z,39.90
2022-10-07T18:05:23.617Z,40.00
2022-10-07T18:08:25.639Z,40.10
2022-10-07T18:11:45.060Z,40.40
2022-10-07T18:14:58.891Z,40.20
2022-10-07T18:18:00.962Z,40.20
2022-10-07T18:21:03.905Z,40.40
2022-10-07T18:24:07.388Z,40.30
2022-10-07T18:27:09.006Z,40.40
2022-10-07T18:30:10.708Z,40.60
2022-10-07T18:33:12.713Z,40.70
2022-10-07T18:36:19.254Z,40.80
2022-10-07T18:39:20.793Z,41.00
2022-10-07T18:42:22.281Z,41.00
2022-10-07T18:45:24.141Z,41.20
2022-10-07T18:48:29.587Z,41.00
2022-10-07T18:51:32.145Z,41.20
2022-10-07T18:54:33.618Z,41.20
2022-10-07T18:57:35.089Z,41.20
2022-10-07T19:00:42.770Z,41.40
2022-10-07T19:03:45.525Z,41.60
2022-10-07T19:06:47.392Z,41.50
2022-10-07T19:09:48.898Z,41.80
2022-10-07T19:13:05.175Z,41.80
2022-10-07T19:16:06.841Z,41.90
2022-10-07T19:19:11.404Z,42.60
2022-10-07T19:22:13.668Z,42.10
2022-10-07T19:25:28.923Z,42.10
2022-10-07T19:28:30.415Z,42.30
2022-10-07T19:31:34.593Z,42.40
2022-10-07T19:34:36.813Z,42.50
2022-10-07T19:37:38.284Z,42.60
2022-10-07T19:40:39.936Z,42.70
2022-10-07T19:43:43.027Z,42.60
2022-10-07T19:46:44.800Z,42.60
2022-10-07T19:49:48.376Z,42.80
2022-10-07T19:52:52.461Z,43.00
2022-10-07T19:55:53.892Z,43.00
2022-10-07T19:58:55.843Z,43.10
2022-10-07T20:02:00.934Z,43.20
2022-10-07T20:05:05.219Z,43.10
2022-10-07T20:08:10.078Z,43.10
2022-10-07T20:11:13.672Z,43.30
2022-10-07T20:14:15.530Z,43.20
2022-10-07T20:17:17.443Z,43.40
2022-10-07T20:20:20.312Z,43.50
2022-10-07T20:23:21.704Z,43.20
2022-10-07T20:26:23.675Z,43.40
2022-10-07T20:29:25.674Z,43.60
2022-10-07T20:32:30.101Z,43.40
2022-10-07T20:35:34.193Z,43.40
2022-10-07T20:38:51.165Z,43.50
2022-10-07T20:42:08.181Z,43.90
2022-10-07T20:45:09.753Z,43.70
2022-10-07T20:48:11.126Z,43.90
2022-10-07T20:51:13.104Z,44.10
2022-10-07T20:54:14.750Z,44.20
2022-10-07T20:57:17.981Z,43.90
2022-10-07T21:00:19.423Z,44.00
2022-10-07T21:03:22.349Z,44.20
2022-10-07T21:06:24.422Z,44.30
2022-10-07T21:09:26.437Z,44.20
2022-10-07T21:12:27.915Z,44.40
2022-10-07T21:15:29.964Z,44.40
2022-10-07T21:18:31.559Z,44.50
2022-10-07T21:21:39.830Z,44.40
2022-10-07T21:24:41.262Z,44.60
2022-10-07T21:27:42.691Z,44.70
2022-10-07T21:30:45.134Z,44.60
2022-10-07T21:33:48.342Z,44.70
2022-10-07T21:36:53.707Z,44.60
2022-10-07T21:39:55.985Z,44.70
2022-10-07T21:42:57.359Z,44.70
2022-10-07T21:46:00.381Z,44.90
2022-10-07T21:49:02.768Z,45.30
2022-10-07T21:52:04.879Z,44.80
2022-10-07T21:55:07.031Z,45.00
2022-10-07T21:58:14.421Z,44.90
2022-10-07T22:01:22.421Z,45.00
2022-10-07T22:04:29.945Z,45.00
2022-10-07T22:07:49.046Z,45.10
2022-10-07T22:10:59.178Z,45.10
2022-10-07T22:14:00.679Z,45.10
2022-10-07T22:17:03.141Z,45.20
2022-10-07T22:20:05.970Z,45.30
2022-10-07T22:23:10.312Z,45.00
2022-10-07T22:26:20.823Z,45.30
2022-10-07T22:29:24.395Z,45.20
2022-10-07T22:32:25.815Z,45.40
2022-10-07T22:35:28.907Z,45.40
2022-10-07T22:38:30.900Z,45.40
2022-10-07T22:41:32.483Z,45.40
2022-10-07T22:44:34.461Z,45.60
2022-10-07T22:47:36.583Z,45.30
2022-10-07T22:50:37.953Z,45.80
2022-10-07T22:53:43.474Z,45.40
2022-10-07T22:56:45.036Z,45.50
2022-10-07T22:59:46.429Z,45.60
2022-10-07T23:02:48.201Z,45.90
2022-10-07T23:05:50.540Z,45.90
2022-10-07T23:08:52.736Z,45.80
2022-10-07T23:11:54.252Z,46.00
2022-10-07T23:14:55.610Z,46.00
2022-10-07T23:17:57.096Z,46.10
2022-10-07T23:20:59.136Z,46.50
2022-10-07T23:24:07.343Z,46.20
2022-10-07T23:27:09.954Z,46.30
2022-10-07T23:30:12.358Z,46.40
2022-10-07T23:33:13.769Z,46.50
2022-10-07T23:36:15.984Z,46.70
2022-10-07T23:39:19.103Z,46.90
2022-10-07T23:42:20.544Z,46.80
2022-10-07T23:45:21.825Z,46.90
2022-10-07T23:48:23.498Z,47.20
2022-10-07T23:51:27.228Z,47.00
2022-10-07T23:54:29.300Z,46.90
2022-10-07T23:57:30.680Z,47.00
